createdAt,value
2019-02-15T15:02:11.908Z,5.78
2019-02-15T15:07:15.626Z,5.93
2019-02-15T15:12:19.433Z,5.10
2019-02-15T15:17:23.160Z,5.37
2019-02-15T15:22:26.868Z,5.67
2019-02-15T15:27:30.624Z,13.03
2019-02-15T15:32:34.329Z,19.77
2019-02-15T15:37:38.106Z,30.97
2019-02-15T15:42:41.812Z,33.10
2019-02-15T15:47:45.927Z,35.10
2019-02-15T15:52:49.905Z,20.17
2019-02-15T15:57:53.631Z,15.53
2019-02-15T16:02:57.331Z,11.43
2019-02-15T16:08:01.113Z,10.00
2019-02-15T16:13:05.137Z,9.40
2019-02-15T16:18:08.877Z,8.73
2019-02-15T16:23:12.837Z,8.23
2019-02-15T16:28:16.546Z,8.50
2019-02-15T16:33:20.291Z,11.00
2019-02-15T16:38:23.993Z,11.27
2019-02-15T16:43:27.760Z,10.93
2019-02-15T16:48:31.448Z,10.67
2019-02-15T16:53:35.160Z,11.33
2019-02-15T16:58:39.102Z,11.70
2019-02-15T17:03:42.816Z,11.67
2019-02-15T17:08:46.537Z,12.03
2019-02-15T17:13:50.278Z,10.77
2019-02-15T17:18:54.023Z,10.60
2019-02-15T17:23:57.744Z,9.60
2019-02-15T17:29:01.459Z,6.30
2019-02-15T17:34:05.487Z,6.37
2019-02-15T17:39:09.304Z,6.07
2019-02-15T17:44:13.009Z,5.50
2019-02-15T17:49:16.973Z,5.10
2019-02-15T17:54:20.670Z,5.93
2019-02-15T17:59:24.376Z,5.50
2019-02-15T18:04:28.385Z,5.17
2019-02-15T18:09:32.448Z,5.87
2019-02-15T18:14:36.328Z,8.47
2019-02-15T18:19:47.034Z,7.70
2019-02-15T18:24:45.451Z,8.13
2019-02-15T18:29:49.227Z,7.70
2019-02-15T18:34:52.939Z,8.23
2019-02-15T18:39:56.664Z,7.83
2019-02-15T18:45:00.382Z,7.90
2019-02-15T18:50:04.314Z,8.30
2019-02-15T18:55:08.933Z,7.90
2019-02-15T19:00:14.695Z,7.40
2019-02-15T19:05:18.386Z,9.87
2019-02-15T19:10:22.186Z,9.07
2019-02-15T19:15:25.941Z,8.30
2019-02-15T19:20:30.157Z,14.77
2019-02-15T19:25:33.860Z,14.63
2019-02-15T19:30:38.237Z,8.37
2019-02-15T19:35:42.103Z,10.73
2019-02-15T19:40:45.969Z,13.43
2019-02-15T19:45:51.675Z,10.43
2019-02-15T19:50:55.933Z,9.93
2019-02-15T19:56:00.142Z,11.40
2019-02-15T20:01:03.976Z,9.50
2019-02-15T20:06:07.841Z,8.53
2019-02-15T20:11:11.631Z,9.30
2019-02-15T20:16:15.501Z,12.07
2019-02-15T20:21:19.385Z,9.73
2019-02-15T20:26:23.369Z,16.73
2019-02-15T20:31:27.635Z,13.87
2019-02-15T20:36:31.813Z,16.13
2019-02-15T20:41:35.740Z,9.00
2019-02-15T20:46:40.082Z,7.67
2019-02-15T20:51:44.249Z,7.03
2019-02-15T20:56:48.604Z,7.30
2019-02-15T21:01:52.501Z,7.77
2019-02-15T21:06:56.305Z,7.37
2019-02-15T21:12:00.440Z,6.93
2019-02-15T21:17:05.761Z,7.67
2019-02-15T21:22:09.793Z,7.63
2019-02-15T21:27:14.097Z,8.00
2019-02-15T21:32:20.680Z,9.40
2019-02-15T21:37:26.768Z,9.70
2019-02-15T21:42:32.486Z,10.33
2019-02-15T21:47:36.202Z,10.90
2019-02-15T21:52:44.043Z,9.60
2019-02-15T21:57:45.516Z,10.70
2019-02-15T22:02:49.216Z,10.43
2019-02-15T22:07:53.951Z,10.03
2019-02-15T22:12:57.619Z,11.30
2019-02-15T22:18:01.365Z,10.07
2019-02-15T22:23:05.057Z,9.17
2019-02-15T22:28:08.750Z,20.20
2019-02-15T22:33:12.456Z,20.77
2019-02-15T22:38:16.140Z,16.33
2019-02-15T22:43:21.843Z,14.73
2019-02-15T22:48:25.533Z,12.77
2019-02-15T22:53:29.224Z,12.73
2019-02-15T22:58:33.014Z,12.57
2019-02-15T23:03:36.764Z,9.67
2019-02-15T23:08:40.453Z,10.30
2019-02-15T23:13:44.140Z,8.20
2019-02-15T23:18:47.826Z,8.30
2019-02-15T23:23:51.526Z,8.77
2019-02-15T23:28:55.218Z,8.53
2019-02-15T23:33:58.909Z,8.77
2019-02-15T23:39:02.764Z,9.10
2019-02-15T23:44:06.801Z,10.07
2019-02-15T23:49:10.486Z,10.17
2019-02-15T23:54:14.179Z,10.57
2019-02-15T23:59:17.874Z,10.53
